Terminal Aerodrome Forecast
Issued by NWS

Home | Current Version | Previous Version | Text Only | Print | Product List | Glossary Off
Versions: 1 2 3 4 5 6 7 8 9 10 11 12 13 14 15 16 17 18 19 20 21 22 23 24 25 26 27 28 29 30

000
FTUS43 KGRB 241724
TAFRHI
TAF
KRHI 241724Z 2418/2518 14010KT P6SM BKN040
     FM250000 13006KT P6SM BKN035
     FM250600 13007KT P6SM OVC030
     FM251000 14007KT P6SM VCSH SCT009 OVC020
      TEMPO 2510/2514 5SM -SHRA BR BKN009
     FM251400 15010KT 4SM -SHRA BR SCT002 OVC006
      TEMPO 2514/2518 2SM TSRA BR BKN002CB=

USA.gov is the U.S. government's official web portal to all federal, state and local government web resources and services.